createdAt,value
2023-03-04T00:01:24.370Z,5.32
2023-03-04T00:03:35.404Z,5.37
2023-03-04T00:05:40.238Z,5.28
2023-03-04T00:07:44.882Z,5.32
2023-03-04T00:09:49.998Z,5.33
2023-03-04T00:11:57.738Z,5.31
2023-03-04T00:14:02.494Z,5.29
2023-03-04T00:16:07.788Z,5.30
2023-03-04T00:18:18.666Z,5.36
2023-03-04T00:20:23.361Z,5.31
2023-03-04T00:22:28.141Z,5.28
2023-03-04T00:24:32.911Z,5.28
2023-03-04T00:26:46.070Z,5.34
2023-03-04T00:28:53.067Z,5.36
2023-03-04T00:30:57.965Z,5.35
2023-03-04T00:33:02.672Z,5.34
2023-03-04T00:35:08.303Z,5.34
2023-03-04T00:37:12.999Z,5.30
2023-03-04T00:39:18.476Z,5.31
2023-03-04T00:41:23.327Z,5.28
2023-03-04T00:43:28.112Z,5.32
2023-03-04T00:45:35.491Z,5.35
2023-03-04T00:47:40.374Z,5.32
2023-03-04T00:49:46.065Z,5.27
2023-03-04T00:51:50.842Z,5.26
2023-03-04T00:53:55.635Z,5.28
2023-03-04T00:56:00.621Z,5.26
2023-03-04T00:58:05.776Z,5.32
2023-03-04T01:00:12.825Z,5.24
2023-03-04T01:02:20.243Z,5.31
2023-03-04T01:04:25.114Z,5.24
2023-03-04T01:06:30.397Z,5.21
2023-03-04T01:08:35.116Z,5.21
2023-03-04T01:10:39.904Z,5.20
2023-03-04T01:12:45.848Z,5.21
2023-03-04T01:14:50.534Z,5.27
2023-03-04T01:16:55.693Z,5.20
2023-03-04T01:19:02.989Z,5.20
2023-03-04T01:21:08.480Z,5.23
2023-03-04T01:23:13.315Z,5.21
2023-03-04T01:25:18.238Z,5.21
2023-03-04T01:27:23.023Z,5.27
2023-03-04T01:29:30.184Z,5.25
2023-03-04T01:31:34.887Z,5.24
2023-03-04T01:33:39.671Z,5.33
2023-03-04T01:35:47.092Z,5.26
2023-03-04T01:37:51.731Z,5.26
2023-03-04T01:39:56.449Z,5.25
2023-03-04T01:42:01.632Z,5.28
2023-03-04T01:44:06.396Z,5.25
2023-03-04T01:46:15.716Z,5.25
2023-03-04T01:48:24.009Z,5.32
2023-03-04T01:50:33.665Z,5.32
2023-03-04T01:52:43.859Z,5.24
2023-03-04T01:54:51.742Z,5.24
2023-03-04T01:56:57.586Z,5.19
2023-03-04T01:59:17.322Z,5.18
2023-03-04T02:01:21.977Z,5.14
2023-03-04T02:03:27.894Z,5.18
2023-03-04T02:05:33.657Z,5.17
2023-03-04T02:07:41.299Z,5.22
2023-03-04T02:09:46.396Z,5.22
2023-03-04T02:11:52.301Z,5.21
2023-03-04T02:13:57.079Z,5.21
2023-03-04T02:16:01.843Z,5.17
2023-03-04T02:18:16.679Z,5.18
2023-03-04T02:20:34.018Z,5.21
2023-03-04T02:22:46.119Z,5.23
2023-03-04T02:24:55.501Z,5.19
2023-03-04T02:27:02.801Z,5.25
2023-03-04T02:29:07.965Z,5.20
2023-03-04T02:31:24.712Z,5.13
2023-03-04T02:33:29.754Z,5.12
2023-03-04T02:35:34.916Z,5.10
2023-03-04T02:37:42.585Z,5.14
2023-03-04T02:39:49.800Z,5.17
2023-03-04T02:41:59.420Z,5.17
2023-03-04T02:44:07.010Z,5.19
2023-03-04T02:46:18.223Z,5.19
2023-03-04T02:48:25.163Z,5.18
2023-03-04T02:50:32.767Z,5.13
2023-03-04T02:52:37.446Z,5.08
2023-03-04T02:54:42.403Z,5.07
2023-03-04T02:56:50.984Z,5.08
2023-03-04T02:58:57.722Z,5.08
2023-03-04T03:01:05.111Z,5.08
2023-03-04T03:03:10.272Z,5.09
2023-03-04T03:05:16.064Z,5.11
2023-03-04T03:07:20.802Z,5.11
2023-03-04T03:09:25.820Z,5.10
2023-03-04T03:11:30.681Z,5.10
2023-03-04T03:13:35.574Z,5.12
2023-03-04T03:15:42.595Z,5.11
2023-03-04T03:17:50.081Z,5.06
2023-03-04T03:19:55.158Z,5.03
2023-03-04T03:21:59.766Z,5.04
2023-03-04T03:24:04.479Z,5.04
2023-03-04T03:26:09.169Z,5.04
2023-03-04T03:28:14.381Z,5.05
2023-03-04T03:30:19.404Z,5.01
2023-03-04T03:32:24.216Z,5.01
2023-03-04T03:34:31.489Z,4.99
2023-03-04T03:36:36.278Z,5.00
2023-03-04T03:38:41.432Z,5.07
2023-03-04T03:40:46.118Z,5.07
2023-03-04T03:42:50.752Z,5.08
2023-03-04T03:44:56.204Z,5.05
2023-03-04T03:47:01.002Z,5.07
2023-03-04T03:49:05.669Z,5.03
2023-03-04T03:51:13.022Z,5.04
2023-03-04T03:53:17.714Z,5.02
2023-03-04T03:55:22.600Z,5.01
2023-03-04T03:57:27.432Z,5.02
2023-03-04T03:59:33.622Z,5.06
2023-03-04T04:01:38.361Z,5.06
2023-03-04T04:03:45.998Z,4.99
2023-03-04T04:05:50.655Z,4.99
2023-03-04T04:08:00.288Z,5.00
2023-03-04T04:10:05.158Z,5.04
2023-03-04T04:12:11.123Z,5.02
2023-03-04T04:14:16.683Z,5.01
2023-03-04T04:16:21.422Z,5.02
2023-03-04T04:18:26.701Z,5.05
2023-03-04T04:20:31.432Z,5.03
2023-03-04T04:22:36.287Z,5.03
2023-03-04T04:24:45.282Z,5.09
2023-03-04T04:26:50.114Z,5.07
2023-03-04T04:28:54.840Z,5.01
2023-03-04T04:30:59.628Z,5.02
2023-03-04T04:33:05.141Z,5.02
2023-03-04T04:35:11.579Z,4.97
2023-03-04T04:37:16.189Z,4.94
2023-03-04T04:39:21.182Z,4.96
2023-03-04T04:41:31.896Z,4.93
2023-03-04T04:43:36.646Z,4.92
2023-03-04T04:45:41.415Z,4.91
2023-03-04T04:47:46.397Z,4.87
2023-03-04T04:49:52.116Z,4.92
2023-03-04T04:52:13.531Z,4.94
2023-03-04T04:54:18.780Z,4.91
2023-03-04T04:56:26.512Z,4.87
2023-03-04T04:58:34.029Z,4.89
2023-03-04T05:00:38.747Z,4.86
2023-03-04T05:02:43.716Z,4.85
2023-03-04T05:04:49.471Z,4.85
2023-03-04T05:06:54.166Z,4.84
2023-03-04T05:08:58.564Z,4.81
2023-03-04T05:11:03.805Z,4.80
2023-03-04T05:13:08.421Z,4.80
2023-03-04T05:15:17.177Z,4.79
2023-03-04T05:17:21.981Z,4.81
2023-03-04T05:19:26.701Z,4.81
2023-03-04T05:21:31.434Z,4.77
2023-03-04T05:23:38.948Z,4.76
2023-03-04T05:25:43.812Z,4.76
2023-03-04T05:27:48.739Z,4.74
2023-03-04T05:29:54.278Z,4.75
2023-03-04T05:32:01.629Z,4.79
2023-03-04T05:34:06.409Z,4.78
2023-03-04T05:36:16.260Z,4.79
2023-03-04T05:38:22.697Z,4.78
2023-03-04T05:40:27.368Z,4.78
2023-03-04T05:42:32.201Z,4.77
2023-03-04T05:44:36.927Z,4.76
2023-03-04T05:46:41.603Z,4.75
2023-03-04T05:48:49.045Z,4.76
2023-03-04T05:50:57.104Z,4.75
2023-03-04T05:53:02.043Z,4.74
2023-03-04T05:55:07.375Z,4.72
2023-03-04T05:57:12.120Z,4.73
2023-03-04T05:59:20.875Z,4.77
2023-03-04T06:01:25.736Z,4.78
2023-03-04T06:03:30.530Z,4.83
2023-03-04T06:05:37.815Z,4.82
2023-03-04T06:07:43.606Z,4.81
2023-03-04T06:09:48.319Z,4.81
2023-03-04T06:11:53.269Z,4.77
2023-03-04T06:13:58.173Z,4.78
2023-03-04T06:16:05.159Z,4.77
2023-03-04T06:18:11.882Z,4.84
2023-03-04T06:20:16.651Z,4.83
2023-03-04T06:22:23.950Z,4.86
2023-03-04T06:24:28.744Z,4.83
2023-03-04T06:26:33.345Z,4.83
2023-03-04T06:28:38.127Z,4.77
2023-03-04T06:30:42.853Z,4.73
2023-03-04T06:32:48.224Z,4.75
2023-03-04T06:34:53.132Z,4.73
2023-03-04T06:36:57.742Z,4.74
2023-03-04T06:39:05.269Z,4.71
2023-03-04T06:41:11.314Z,4.70
2023-03-04T06:43:16.095Z,4.72
2023-03-04T06:45:20.977Z,4.71
2023-03-04T06:47:26.020Z,4.70
2023-03-04T06:49:30.769Z,4.72
2023-03-04T06:51:35.529Z,4.73
2023-03-04T06:53:41.413Z,4.72
2023-03-04T06:55:49.715Z,4.71
2023-03-04T06:57:54.586Z,4.74
2023-03-04T06:59:59.241Z,4.73
2023-03-04T07:02:04.077Z,4.74
2023-03-04T07:04:09.113Z,4.75
2023-03-04T07:06:14.979Z,4.78
2023-03-04T07:08:21.725Z,4.81
2023-03-04T07:10:26.875Z,4.91
2023-03-04T07:12:34.160Z,4.97
2023-03-04T07:14:38.780Z,4.99
2023-03-04T07:16:43.712Z,5.00
2023-03-04T07:18:51.916Z,5.01
2023-03-04T07:20:56.939Z,5.01
2023-03-04T07:23:01.609Z,5.02
2023-03-04T07:25:07.109Z,5.03
2023-03-04T07:27:11.849Z,5.03
2023-03-04T07:29:19.390Z,4.96
2023-03-04T07:31:27.684Z,4.99
2023-03-04T07:33:32.379Z,4.92
2023-03-04T07:35:37.541Z,4.96
2023-03-04T07:37:42.788Z,4.97
2023-03-04T07:39:47.616Z,5.00
2023-03-04T07:41:52.349Z,5.00
2023-03-04T07:43:58.658Z,5.00
2023-03-04T07:46:06.084Z,4.94
2023-03-04T07:48:10.800Z,5.01
2023-03-04T07:50:17.884Z,5.13
2023-03-04T07:52:23.192Z,5.18
2023-03-04T07:54:27.839Z,5.26
2023-03-04T07:56:34.629Z,5.34
2023-03-04T07:58:39.644Z,5.33
2023-03-04T08:00:44.281Z,5.33
2023-03-04T08:02:52.514Z,5.28
2023-03-04T08:05:00.105Z,5.35
2023-03-04T08:07:04.889Z,5.35
2023-03-04T08:09:11.028Z,5.36
2023-03-04T08:11:17.958Z,5.41
2023-03-04T08:13:24.239Z,5.54
2023-03-04T08:15:33.034Z,5.71
2023-03-04T08:17:38.344Z,5.62
2023-03-04T08:19:47.071Z,5.66
2023-03-04T08:21:52.048Z,5.80
2023-03-04T08:23:57.774Z,5.78
2023-03-04T08:26:02.547Z,5.86
2023-03-04T08:28:07.704Z,5.97
2023-03-04T08:30:14.276Z,6.25
2023-03-04T08:32:19.137Z,6.28
2023-03-04T08:34:26.144Z,6.34
2023-03-04T08:36:33.461Z,6.24
2023-03-04T08:38:38.231Z,6.43
2023-03-04T08:40:42.896Z,6.52
2023-03-04T08:42:47.510Z,6.76
2023-03-04T08:44:52.215Z,6.80
2023-03-04T08:46:56.959Z,6.61
2023-03-04T08:49:01.593Z,6.38
2023-03-04T08:51:10.970Z,6.06
2023-03-04T08:53:19.126Z,6.00
2023-03-04T08:55:23.810Z,5.82
2023-03-04T08:57:28.600Z,5.82
2023-03-04T08:59:33.302Z,5.69
2023-03-04T09:01:38.100Z,5.62
2023-03-04T09:03:44.082Z,5.68
2023-03-04T09:05:49.828Z,5.83
2023-03-04T09:07:54.448Z,5.86
2023-03-04T09:10:01.680Z,5.97
2023-03-04T09:12:08.245Z,6.18
2023-03-04T09:14:14.263Z,6.23
2023-03-04T09:16:19.155Z,6.41
2023-03-04T09:18:25.494Z,6.85
2023-03-04T09:20:30.145Z,6.86
2023-03-04T09:22:35.100Z,7.05
2023-03-04T09:24:39.836Z,7.02
2023-03-04T09:26:47.028Z,6.90
2023-03-04T09:28:54.281Z,7.24
2023-03-04T09:30:59.022Z,7.67
2023-03-04T09:33:03.809Z,7.58
2023-03-04T09:35:10.307Z,7.85
2023-03-04T09:37:14.985Z,7.79
2023-03-04T09:39:19.656Z,7.37
2023-03-04T09:41:27.269Z,7.17
2023-03-04T09:43:36.088Z,7.30
2023-03-04T09:45:49.008Z,7.40
2023-03-04T09:47:57.156Z,7.31
2023-03-04T09:50:04.242Z,7.17
2023-03-04T09:52:20.517Z,7.29
2023-03-04T09:54:37.781Z,7.61
2023-03-04T09:56:45.401Z,7.71
2023-03-04T09:59:04.899Z,7.51
2023-03-04T10:01:15.521Z,7.22
2023-03-04T10:03:22.994Z,7.09
2023-03-04T10:05:30.557Z,6.94
2023-03-04T10:07:41.491Z,6.89
2023-03-04T10:09:52.577Z,6.86
2023-03-04T10:12:05.840Z,6.78
2023-03-04T10:14:36.714Z,6.68
2023-03-04T10:16:46.307Z,6.77
2023-03-04T10:18:55.691Z,6.79
2023-03-04T10:21:05.047Z,6.93
2023-03-04T10:23:17.575Z,6.82
2023-03-04T10:25:25.746Z,6.57
2023-03-04T10:27:31.321Z,6.59
2023-03-04T10:29:39.571Z,6.29
2023-03-04T10:31:44.255Z,6.67
2023-03-04T10:33:49.115Z,6.96
2023-03-04T10:35:58.881Z,7.39
2023-03-04T10:38:06.349Z,7.73
2023-03-04T10:40:22.015Z,7.94
2023-03-04T10:42:37.494Z,7.99
2023-03-04T10:44:53.972Z,8.06
2023-03-04T10:47:00.466Z,7.80
2023-03-04T10:49:06.417Z,7.70
2023-03-04T10:51:21.082Z,8.12
2023-03-04T10:53:36.221Z,8.30
2023-03-04T10:55:47.834Z,8.28
2023-03-04T10:57:57.440Z,8.56
2023-03-04T11:00:22.194Z,8.21
2023-03-04T11:02:30.143Z,8.24
2023-03-04T11:04:37.285Z,7.93
2023-03-04T11:06:44.016Z,8.05
2023-03-04T11:08:57.003Z,8.17
2023-03-04T11:11:01.941Z,8.12
2023-03-04T11:13:19.669Z,8.51
2023-03-04T11:15:31.213Z,8.09
2023-03-04T11:17:46.894Z,8.01
2023-03-04T11:19:55.726Z,7.49
2023-03-04T11:22:01.706Z,7.18
2023-03-04T11:24:25.751Z,7.00
2023-03-04T11:26:37.823Z,7.15
2023-03-04T11:28:48.113Z,7.13
2023-03-04T11:31:00.444Z,7.53
2023-03-04T11:33:15.341Z,7.56
2023-03-04T11:35:26.975Z,7.84
2023-03-04T11:37:35.860Z,7.87
2023-03-04T11:39:44.604Z,7.96
2023-03-04T11:41:56.093Z,8.05
2023-03-04T11:44:01.570Z,7.91
2023-03-04T11:46:30.153Z,8.30
2023-03-04T11:48:47.747Z,8.18
2023-03-04T11:50:56.658Z,8.19
2023-03-04T11:53:23.629Z,8.19
2023-03-04T11:55:39.357Z,8.30
2023-03-04T11:57:54.593Z,8.09
2023-03-04T12:00:14.846Z,7.96
2023-03-04T12:02:24.829Z,7.84
2023-03-04T12:04:43.607Z,7.62
2023-03-04T12:06:59.286Z,7.29
2023-03-04T12:09:18.170Z,7.65
2023-03-04T12:11:33.488Z,7.65
2023-03-04T12:13:50.426Z,7.25
2023-03-04T12:16:05.562Z,7.34
2023-03-04T12:18:29.739Z,7.06
2023-03-04T12:20:48.737Z,7.30
2023-03-04T12:22:59.262Z,6.93
2023-03-04T12:25:27.940Z,7.34
2023-03-04T12:27:40.039Z,7.61
2023-03-04T12:29:50.510Z,7.39
2023-03-04T12:32:04.062Z,7.50
2023-03-04T12:34:42.914Z,7.16
2023-03-04T12:36:54.950Z,7.44
2023-03-04T12:39:10.260Z,7.59
2023-03-04T12:41:31.219Z,7.58
2023-03-04T12:43:45.097Z,7.33
2023-03-04T12:45:58.210Z,7.01
2023-03-04T12:48:10.677Z,6.97
2023-03-04T12:50:39.289Z,6.98
2023-03-04T12:52:52.566Z,7.04
2023-03-04T12:55:00.735Z,7.06
2023-03-04T12:57:09.355Z,7.20
2023-03-04T12:59:18.717Z,7.35
2023-03-04T13:01:28.728Z,7.73
2023-03-04T13:03:41.575Z,7.78
2023-03-04T13:06:10.011Z,8.08
2023-03-04T13:08:28.108Z,8.09
2023-03-04T13:10:33.085Z,8.03
2023-03-04T13:12:51.395Z,7.82
2023-03-04T13:15:26.141Z,7.99
2023-03-04T13:17:43.945Z,7.98
2023-03-04T13:19:55.854Z,7.99
2023-03-04T13:22:03.116Z,8.21
2023-03-04T13:24:37.685Z,8.48
2023-03-04T13:26:42.948Z,8.71
2023-03-04T13:28:55.090Z,8.72
2023-03-04T13:31:20.777Z,8.88
2023-03-04T13:33:57.956Z,8.63
2023-03-04T13:36:09.017Z,8.51
2023-03-04T13:38:26.954Z,8.82
2023-03-04T13:40:39.919Z,8.32
2023-03-04T13:42:46.329Z,8.12
2023-03-04T13:45:02.608Z,8.02
2023-03-04T13:47:12.656Z,7.78
2023-03-04T13:49:24.949Z,7.46
2023-03-04T13:51:33.420Z,7.34
2023-03-04T13:53:50.092Z,7.48
2023-03-04T13:56:09.817Z,7.75
2023-03-04T13:58:23.501Z,7.98
2023-03-04T14:00:28.850Z,7.70
2023-03-04T14:02:37.573Z,7.46
2023-03-04T14:04:44.006Z,7.66
2023-03-04T14:06:49.656Z,7.85
2023-03-04T14:08:58.545Z,7.87
2023-03-04T14:11:03.342Z,7.89
2023-03-04T14:13:09.278Z,8.07
2023-03-04T14:15:25.077Z,8.23
2023-03-04T14:17:33.879Z,8.14
2023-03-04T14:19:48.153Z,8.44
2023-03-04T14:21:52.967Z,8.45
2023-03-04T14:24:09.623Z,8.38
2023-03-04T14:26:16.239Z,8.55
2023-03-04T14:28:23.512Z,8.66
2023-03-04T14:30:42.119Z,8.41
2023-03-04T14:32:48.813Z,8.46
2023-03-04T14:34:56.003Z,8.29
2023-03-04T14:37:01.631Z,8.09
2023-03-04T14:39:10.236Z,7.99
2023-03-04T14:41:21.193Z,7.94
2023-03-04T14:43:26.964Z,7.78
2023-03-04T14:45:32.699Z,7.86
2023-03-04T14:47:41.138Z,7.63
2023-03-04T14:49:46.346Z,7.52
2023-03-04T14:51:52.881Z,7.30
2023-03-04T14:53:58.473Z,7.31
2023-03-04T14:56:14.223Z,7.42
2023-03-04T14:58:25.102Z,7.64
2023-03-04T15:00:34.519Z,7.66
2023-03-04T15:02:46.672Z,7.67
2023-03-04T15:04:52.200Z,7.39
2023-03-04T15:06:57.340Z,7.38
2023-03-04T15:09:05.519Z,7.28
2023-03-04T15:11:25.333Z,7.31
2023-03-04T15:13:44.131Z,7.23
2023-03-04T15:15:50.060Z,7.32
2023-03-04T15:18:01.155Z,7.36
2023-03-04T15:20:28.410Z,7.36
2023-03-04T15:22:33.088Z,7.29
2023-03-04T15:24:37.828Z,7.34
2023-03-04T15:26:46.705Z,7.21
2023-03-04T15:28:53.271Z,7.28
2023-03-04T15:30:57.919Z,7.15
2023-03-04T15:33:03.756Z,7.04
2023-03-04T15:35:09.845Z,6.93
2023-03-04T15:37:22.913Z,6.84
2023-03-04T15:39:27.765Z,6.81
2023-03-04T15:41:32.426Z,6.70
2023-03-04T15:43:39.915Z,6.65
2023-03-04T15:45:45.275Z,6.63
2023-03-04T15:47:50.140Z,6.53
2023-03-04T15:49:54.851Z,6.55
2023-03-04T15:51:59.510Z,6.50
2023-03-04T15:54:04.822Z,6.51
2023-03-04T15:56:15.081Z,6.50
2023-03-04T15:58:19.804Z,6.55
2023-03-04T16:00:27.777Z,6.48
2023-03-04T16:02:33.115Z,6.52
2023-03-04T16:04:39.070Z,6.52
2023-03-04T16:06:45.369Z,6.46
2023-03-04T16:08:52.435Z,6.36
2023-03-04T16:10:57.365Z,6.36
2023-03-04T16:13:02.607Z,6.41
2023-03-04T16:15:18.804Z,6.51
2023-03-04T16:17:26.411Z,6.37
2023-03-04T16:19:31.189Z,6.37
2023-03-04T16:21:39.278Z,6.31
2023-03-04T16:23:54.600Z,6.26
2023-03-04T16:25:59.555Z,6.25
2023-03-04T16:28:05.253Z,6.38
2023-03-04T16:30:14.257Z,6.39
2023-03-04T16:32:27.642Z,6.28
2023-03-04T16:34:34.889Z,6.36
2023-03-04T16:36:39.788Z,6.34
2023-03-04T16:38:47.878Z,6.15
2023-03-04T16:40:52.497Z,6.14
2023-03-04T16:42:57.609Z,6.18
2023-03-04T16:45:02.256Z,6.04
2023-03-04T16:47:08.001Z,6.02
2023-03-04T16:49:13.064Z,6.05
2023-03-04T16:51:22.810Z,6.15
2023-03-04T16:53:34.430Z,6.08
2023-03-04T16:55:40.724Z,5.88
2023-03-04T16:57:45.543Z,5.84
2023-03-04T16:59:50.625Z,5.82
2023-03-04T17:01:59.212Z,5.81
2023-03-04T17:04:04.023Z,5.75
2023-03-04T17:06:09.543Z,5.71
2023-03-04T17:08:16.993Z,5.61
2023-03-04T17:10:23.258Z,5.55
2023-03-04T17:12:27.874Z,5.58
2023-03-04T17:14:32.605Z,5.55
2023-03-04T17:16:37.324Z,5.51
2023-03-04T17:18:42.110Z,5.53
2023-03-04T17:20:47.247Z,5.54
2023-03-04T17:22:52.314Z,5.53
2023-03-04T17:24:59.835Z,5.45
2023-03-04T17:27:04.455Z,5.41
2023-03-04T17:29:09.164Z,5.34
2023-03-04T17:31:15.443Z,5.31
2023-03-04T17:33:20.116Z,5.27
2023-03-04T17:35:27.061Z,5.27
2023-03-04T17:37:31.744Z,5.28
2023-03-04T17:39:36.507Z,5.25
2023-03-04T17:41:43.960Z,5.30
2023-03-04T17:43:50.557Z,5.25
2023-03-04T17:46:04.441Z,5.22
2023-03-04T17:48:14.961Z,5.13
2023-03-04T17:50:21.142Z,5.09
2023-03-04T17:52:25.973Z,5.06
2023-03-04T17:54:30.855Z,5.00
2023-03-04T17:56:36.420Z,4.93
2023-03-04T17:58:43.862Z,4.91
2023-03-04T18:00:49.491Z,4.90
2023-03-04T18:02:54.254Z,4.93
2023-03-04T18:04:59.076Z,4.91
2023-03-04T18:07:05.654Z,4.95
2023-03-04T18:09:10.376Z,4.92
2023-03-04T18:11:17.351Z,4.92
2023-03-04T18:13:22.288Z,4.88
2023-03-04T18:15:29.768Z,4.77
2023-03-04T18:17:34.493Z,4.72
2023-03-04T18:19:39.430Z,4.65
2023-03-04T18:21:44.423Z,4.62
2023-03-04T18:23:49.651Z,4.65
2023-03-04T18:25:54.323Z,4.65
2023-03-04T18:27:59.070Z,4.67
2023-03-04T18:30:05.838Z,4.69
2023-03-04T18:32:13.212Z,4.69
2023-03-04T18:34:17.954Z,4.65
2023-03-04T18:36:22.864Z,4.69
2023-03-04T18:38:27.618Z,4.69
2023-03-04T18:40:34.556Z,4.71
2023-03-04T18:42:44.244Z,4.71
2023-03-04T18:44:51.477Z,4.70
2023-03-04T18:46:59.393Z,4.74
2023-03-04T18:49:13.371Z,4.74
2023-03-04T18:51:18.094Z,4.72
2023-03-04T18:53:24.596Z,4.75
2023-03-04T18:55:29.600Z,4.75
2023-03-04T18:57:34.791Z,4.78
2023-03-04T18:59:43.199Z,4.79
2023-03-04T19:01:48.623Z,4.77
2023-03-04T19:03:54.569Z,4.78
2023-03-04T19:06:02.228Z,4.76
2023-03-04T19:08:07.746Z,4.78
2023-03-04T19:10:14.533Z,4.79
2023-03-04T19:12:22.376Z,4.78
2023-03-04T19:14:28.433Z,4.77
2023-03-04T19:16:33.219Z,4.84
2023-03-04T19:18:38.046Z,4.83
2023-03-04T19:20:43.521Z,4.81
2023-03-04T19:22:51.021Z,4.84
2023-03-04T19:24:55.712Z,4.84
2023-03-04T19:27:00.409Z,4.86
2023-03-04T19:29:05.233Z,4.87
2023-03-04T19:31:11.497Z,4.89
2023-03-04T19:33:16.361Z,4.81
2023-03-04T19:35:21.197Z,4.74
2023-03-04T19:37:25.892Z,4.65
2023-03-04T19:39:33.178Z,4.57
2023-03-04T19:41:38.557Z,4.49
2023-03-04T19:43:46.300Z,4.47
2023-03-04T19:45:56.904Z,4.44
2023-03-04T19:48:03.137Z,4.45
2023-03-04T19:50:13.420Z,4.48
2023-03-04T19:52:18.196Z,4.53
2023-03-04T19:54:25.224Z,4.53
2023-03-04T19:56:32.778Z,4.58
2023-03-04T19:58:37.698Z,4.53
2023-03-04T20:00:42.442Z,4.55
2023-03-04T20:02:49.117Z,4.43
2023-03-04T20:04:53.859Z,4.46
2023-03-04T20:07:01.200Z,4.41
2023-03-04T20:09:07.007Z,4.37
2023-03-04T20:11:15.211Z,4.31
2023-03-04T20:13:22.558Z,4.24
2023-03-04T20:15:32.243Z,4.21
2023-03-04T20:17:36.980Z,4.16
2023-03-04T20:19:41.884Z,4.11
2023-03-04T20:21:46.748Z,4.07
2023-03-04T20:23:51.506Z,4.02
2023-03-04T20:25:56.528Z,3.99
2023-03-04T20:28:01.871Z,3.96
2023-03-04T20:30:10.578Z,3.95
2023-03-04T20:32:15.272Z,3.88
2023-03-04T20:34:20.167Z,3.85
2023-03-04T20:36:26.826Z,3.79
2023-03-04T20:38:33.725Z,3.72
2023-03-04T20:40:40.568Z,3.68
2023-03-04T20:42:45.330Z,3.60
2023-03-04T20:44:50.074Z,3.52
2023-03-04T20:46:57.781Z,3.46
2023-03-04T20:49:04.440Z,3.43
2023-03-04T20:51:09.103Z,3.38
2023-03-04T20:53:13.928Z,3.38
2023-03-04T20:55:21.462Z,3.37
2023-03-04T20:57:26.648Z,3.41
2023-03-04T20:59:31.274Z,3.52
2023-03-04T21:01:36.093Z,3.63
2023-03-04T21:03:43.866Z,3.64
2023-03-04T21:05:48.665Z,3.63
2023-03-04T21:07:55.447Z,3.60
2023-03-04T21:10:00.461Z,3.60
2023-03-04T21:12:05.149Z,3.57
2023-03-04T21:14:11.353Z,3.57
2023-03-04T21:16:17.519Z,3.57
2023-03-04T21:18:22.303Z,3.59
2023-03-04T21:20:29.689Z,3.55
2023-03-04T21:22:34.268Z,3.48
2023-03-04T21:24:47.248Z,3.42
2023-03-04T21:26:52.289Z,3.44
2023-03-04T21:28:57.650Z,3.58
2023-03-04T21:31:02.887Z,3.57
2023-03-04T21:33:08.903Z,3.61
2023-03-04T21:35:19.460Z,3.63
2023-03-04T21:37:28.232Z,3.63
2023-03-04T21:39:33.447Z,3.66
2023-03-04T21:41:38.166Z,3.68
2023-03-04T21:43:42.877Z,3.67
2023-03-04T21:45:47.589Z,3.68
2023-03-04T21:47:52.497Z,3.70
2023-03-04T21:49:57.224Z,3.68
2023-03-04T21:52:03.750Z,3.68
2023-03-04T21:54:11.398Z,3.68
2023-03-04T21:56:16.368Z,3.67
2023-03-04T21:58:21.238Z,3.66
2023-03-04T22:00:26.382Z,3.65
2023-03-04T22:02:31.043Z,3.61
2023-03-04T22:04:35.882Z,3.57
2023-03-04T22:06:41.412Z,3.54
2023-03-04T22:08:46.350Z,3.56
2023-03-04T22:10:53.640Z,3.50
2023-03-04T22:12:58.525Z,3.49
2023-03-04T22:15:03.240Z,3.47
2023-03-04T22:17:08.098Z,3.43
2023-03-04T22:19:12.900Z,3.40
2023-03-04T22:21:21.342Z,3.37
2023-03-04T22:23:26.252Z,3.36
2023-03-04T22:25:31.172Z,3.35
2023-03-04T22:27:38.572Z,3.34
2023-03-04T22:29:43.094Z,3.32
2023-03-04T22:31:48.867Z,3.32
2023-03-04T22:33:53.665Z,3.30
2023-03-04T22:35:58.358Z,3.30
2023-03-04T22:38:03.044Z,3.30
2023-03-04T22:40:11.099Z,3.27
2023-03-04T22:42:16.173Z,3.28
2023-03-04T22:44:23.697Z,3.26
2023-03-04T22:46:30.621Z,3.29
2023-03-04T22:48:35.523Z,3.30
2023-03-04T22:50:40.297Z,3.30
2023-03-04T22:52:45.050Z,3.30
2023-03-04T22:54:50.390Z,3.27
2023-03-04T22:56:55.032Z,3.28
2023-03-04T22:58:59.736Z,3.23
2023-03-04T23:01:08.335Z,3.20
2023-03-04T23:03:13.000Z,3.20
2023-03-04T23:05:18.798Z,3.15
2023-03-04T23:07:23.709Z,3.12
2023-03-04T23:09:28.406Z,3.14
2023-03-04T23:11:35.474Z,3.17
2023-03-04T23:13:40.696Z,3.20
2023-03-04T23:15:48.075Z,3.22
2023-03-04T23:17:55.583Z,3.26
2023-03-04T23:20:01.290Z,3.27
2023-03-04T23:22:05.975Z,3.33
2023-03-04T23:24:11.926Z,3.29
2023-03-04T23:26:17.704Z,3.24
2023-03-04T23:28:22.466Z,3.17
2023-03-04T23:30:27.304Z,3.13
2023-03-04T23:32:32.055Z,3.05
2023-03-04T23:34:42.224Z,2.95
2023-03-04T23:36:46.975Z,2.85
2023-03-04T23:38:52.053Z,2.82
2023-03-04T23:40:56.678Z,2.73
2023-03-04T23:43:01.463Z,2.68
2023-03-04T23:45:06.455Z,2.58
2023-03-04T23:47:11.476Z,2.45
2023-03-04T23:49:18.001Z,2.37
2023-03-04T23:51:28.577Z,2.31
2023-03-04T23:53:34.510Z,2.28
2023-03-04T23:55:42.474Z,2.23
2023-03-04T23:57:47.789Z,2.16
2023-03-04T23:59:52.493Z,2.15
